Time;durP1;ratioP1;P1;durP2;ratioP2;P2;SDS_P1;SDS_P2;PMS_P1;PMS_P2;Temp;Humidity;BMP_temperature;BMP_pressure;BME280_temperature;BME280_humidity;BME280_pressure;Samples;Min_cycle;Max_cycle;Signal;HPM_P1;HPM_P2
2023/10/13 00:01:54;;;;;;;15.10;12.10;;;;;;;17.43;100.00;98268.22;4198890;28;20709;-85
2023/10/13 00:03:57;;;;;;;17.10;13.00;;;;;;;17.40;100.00;98266.69;4196483;28;20660;-85
2023/10/13 00:06:02;;;;;;;15.50;12.43;;;;;;;17.39;100.00;98261.56;4194149;28;21316;-85
2023/10/13 00:08:07;;;;;;;20.80;13.00;;;;;;;17.38;100.00;98259.88;4200310;28;21036;-85
2023/10/13 00:10:12;;;;;;;17.10;13.07;;;;;;;17.37;100.00;98264.34;4202436;28;20694;-85
2023/10/13 00:12:20;;;;;;;17.43;11.97;;;;;;;17.33;100.00;98260.31;4187786;28;20672;-85
2023/10/13 00:14:30;;;;;;;13.67;11.57;;;;;;;17.32;100.00;98263.09;4200729;28;21220;-84
2023/10/13 00:16:34;;;;;;;16.63;13.23;;;;;;;17.31;100.00;98258.81;4202991;28;21314;-85
2023/10/13 00:18:41;;;;;;;14.40;11.80;;;;;;;17.27;100.00;98260.06;4182545;28;21411;-85
2023/10/13 00:20:48;;;;;;;19.20;13.13;;;;;;;17.21;100.00;98253.53;4203745;28;20635;-85
2023/10/13 00:22:52;;;;;;;17.60;12.70;;;;;;;17.18;100.00;98248.50;4204280;28;20669;-85
2023/10/13 00:24:58;;;;;;;13.60;11.60;;;;;;;17.17;100.00;98254.78;4217089;28;20628;-85
2023/10/13 00:27:04;;;;;;;17.97;11.83;;;;;;;17.13;100.00;98245.47;4203848;28;20656;-85
2023/10/13 00:29:15;;;;;;;15.40;12.20;;;;;;;17.14;100.00;98248.94;4203965;28;20643;-84
2023/10/13 00:31:21;;;;;;;17.70;12.60;;;;;;;17.10;100.00;98250.19;4179695;28;20671;-85
2023/10/13 00:33:25;;;;;;;16.20;12.30;;;;;;;17.08;100.00;98247.69;4186106;28;20638;-85
2023/10/13 00:35:35;;;;;;;14.87;12.63;;;;;;;17.07;100.00;98258.38;4198019;28;20635;-85
2023/10/13 00:37:44;;;;;;;17.93;12.23;;;;;;;17.06;100.00;98248.81;4180324;28;20631;-84
2023/10/13 00:39:47;;;;;;;14.63;11.57;;;;;;;17.03;100.00;98244.66;4215131;28;20636;-85
2023/10/13 00:41:53;;;;;;;17.00;12.57;;;;;;;17.01;100.00;98248.41;4196628;28;20699;-85
2023/10/13 00:44:07;;;;;;;15.33;12.90;;;;;;;16.99;100.00;98245.09;4184097;28;20659;-85
2023/10/13 00:46:13;;;;;;;15.80;11.80;;;;;;;16.97;100.00;98243.56;4186538;28;20647;-85
2023/10/13 00:48:15;;;;;;;15.23;10.57;;;;;;;16.93;100.00;98243.00;4215224;28;20644;-84
2023/10/13 00:50:19;;;;;;;24.63;12.23;;;;;;;16.90;100.00;98238.00;4197327;28;20682;-85
2023/10/13 00:52:22;;;;;;;13.70;11.57;;;;;;;16.90;100.00;98243.28;4204645;28;20628;-84
2023/10/13 00:54:27;;;;;;;14.83;11.47;;;;;;;16.86;100.00;98247.16;4195864;28;20648;-84
2023/10/13 00:56:30;;;;;;;15.63;11.63;;;;;;;16.85;100.00;98239.41;4180688;28;21276;-84
2023/10/13 00:58:34;;;;;;;16.23;12.33;;;;;;;16.83;100.00;98238.72;4198669;28;20739;-85
2023/10/13 01:00:47;;;;;;;14.90;11.13;;;;;;;16.79;100.00;98234.69;4216925;28;20637;-85
2023/10/13 01:02:55;;;;;;;15.03;11.10;;;;;;;16.75;100.00;98234.13;4185260;28;20628;-85
2023/10/13 01:04:58;;;;;;;14.90;10.97;;;;;;;16.72;100.00;98234.41;4197759;28;21037;-85
2023/10/13 01:07:02;;;;;;;16.57;11.17;;;;;;;16.70;100.00;98231.09;4203499;28;20816;-84
2023/10/13 01:09:11;;;;;;;15.80;11.83;;;;;;;16.65;99.83;98233.28;4177944;28;20626;-85
2023/10/13 01:11:15;;;;;;;17.47;11.10;;;;;;;16.64;100.00;98238.69;4184684;28;20627;-85
2023/10/13 01:13:17;;;;;;;14.60;11.40;;;;;;;16.60;100.00;98235.53;4197747;28;21016;-84
2023/10/13 01:15:21;;;;;;;14.17;11.00;;;;;;;16.58;100.00;98237.47;4203394;28;20643;-85
2023/10/13 01:17:31;;;;;;;13.03;11.03;;;;;;;16.56;100.00;98228.03;4187268;28;20632;-85
2023/10/13 01:19:38;;;;;;;17.80;12.53;;;;;;;16.52;100.00;98229.25;4216406;28;20659;-85
2023/10/13 01:21:41;;;;;;;15.80;11.40;;;;;;;16.48;100.00;98227.91;4196644;28;21053;-85
2023/10/13 01:23:47;;;;;;;15.90;12.30;;;;;;;16.48;100.00;98219.13;4182786;28;20775;-85
2023/10/13 01:25:50;;;;;;;19.10;13.00;;;;;;;16.48;100.00;98229.69;4206782;28;20623;-85
2023/10/13 01:27:53;;;;;;;17.00;12.57;;;;;;;16.46;100.00;98216.66;4186524;28;20644;-85
2023/10/13 01:29:58;;;;;;;17.70;13.10;;;;;;;16.47;100.00;98217.50;4204400;28;20631;-85
2023/10/13 01:32:02;;;;;;;14.13;11.63;;;;;;;16.43;100.00;98216.09;4182512;28;20679;-85
2023/10/13 01:34:04;;;;;;;18.17;13.37;;;;;;;16.41;100.00;98218.88;4188448;28;20633;-85
2023/10/13 01:36:08;;;;;;;15.97;12.20;;;;;;;16.41;100.00;98218.03;4195406;28;21034;-84
2023/10/13 01:38:11;;;;;;;16.53;12.40;;;;;;;16.38;100.00;98221.78;4185550;28;20680;-84
2023/10/13 01:40:18;;;;;;;17.30;11.30;;;;;;;16.38;100.00;98218.31;4185918;28;20725;-85
2023/10/13 01:42:21;;;;;;;15.43;12.03;;;;;;;16.36;100.00;98222.91;4199204;28;20654;-85
2023/10/13 01:44:27;;;;;;;17.30;11.70;;;;;;;16.35;100.00;98224.69;4184965;28;20628;-85
2023/10/13 01:46:30;;;;;;;15.33;11.97;;;;;;;16.34;100.00;98214.28;4184277;28;20692;-85
2023/10/13 01:48:38;;;;;;;15.40;11.93;;;;;;;16.32;100.00;98218.88;4198361;28;20634;-85
2023/10/13 01:50:40;;;;;;;18.90;11.67;;;;;;;16.28;100.00;98218.31;4203452;28;20724;-85
2023/10/13 01:52:44;;;;;;;13.13;11.13;;;;;;;16.27;100.00;98200.03;4196606;28;20639;-85
2023/10/13 01:54:48;;;;;;;12.73;10.63;;;;;;;16.27;100.00;98210.56;4196993;28;20631;-85
2023/10/13 01:56:54;;;;;;;16.50;11.07;;;;;;;16.25;100.00;98208.06;4184159;28;20632;-85
2023/10/13 01:58:57;;;;;;;14.43;11.53;;;;;;;16.23;100.00;98201.25;4203312;28;21085;-84
2023/10/13 02:01:00;;;;;;;16.20;10.67;;;;;;;16.20;100.00;98204.13;4197709;28;22122;-85
2023/10/13 02:03:03;;;;;;;14.60;11.10;;;;;;;16.16;100.00;98202.72;4186746;28;20640;-85
2023/10/13 02:05:08;;;;;;;14.30;11.20;;;;;;;16.15;100.00;98193.19;4176515;28;21218;-85
2023/10/13 02:07:14;;;;;;;14.50;11.20;;;;;;;16.15;100.00;98194.00;4196668;28;20816;-85
2023/10/13 02:09:25;;;;;;;15.53;11.67;;;;;;;16.12;100.00;98194.28;4184309;28;20975;-85
2023/10/13 02:11:27;;;;;;;18.00;11.00;;;;;;;16.09;100.00;98184.03;4216212;28;20655;-84
2023/10/13 02:13:32;;;;;;;14.13;11.03;;;;;;;16.08;99.92;98194.69;4199053;28;20633;-84
2023/10/13 02:15:36;;;;;;;15.40;10.90;;;;;;;16.04;100.00;98188.03;4197751;28;20632;-85
2023/10/13 02:17:41;;;;;;;15.50;10.23;;;;;;;16.03;100.00;98186.38;4214445;28;21029;-85
2023/10/13 02:19:45;;;;;;;18.10;10.43;;;;;;;16.02;100.00;98182.06;4201190;28;20685;-85
2023/10/13 02:21:58;;;;;;;14.37;11.20;;;;;;;15.99;99.88;98179.72;4176894;28;20724;-85
2023/10/13 02:24:04;;;;;;;12.03;10.53;;;;;;;15.97;100.00;98176.41;4184632;28;20742;-85
2023/10/13 02:26:13;;;;;;;14.93;10.80;;;;;;;15.93;100.00;98180.25;4202963;28;20629;-85
2023/10/13 02:28:21;;;;;;;15.80;11.40;;;;;;;15.91;99.84;98171.66;4182780;28;20701;-84
2023/10/13 02:30:25;;;;;;;11.70;9.77;;;;;;;15.88;100.00;98160.59;4216445;28;20663;-84
2023/10/13 02:32:30;;;;;;;12.47;10.30;;;;;;;15.86;100.00;98163.38;4195289;28;21191;-84
2023/10/13 02:34:33;;;;;;;13.10;10.70;;;;;;;15.83;99.57;98170.66;4195397;28;21271;-85
2023/10/13 02:36:36;;;;;;;14.53;11.33;;;;;;;15.80;100.00;98157.78;4207052;28;20676;-84
2023/10/13 02:38:45;;;;;;;14.67;10.73;;;;;;;15.78;100.00;98159.72;4184646;28;21190;-85
2023/10/13 02:40:48;;;;;;;14.13;10.73;;;;;;;15.74;100.00;98169.69;4198033;28;20685;-84
2023/10/13 02:42:51;;;;;;;14.40;11.40;;;;;;;15.74;100.00;98155.69;4213582;28;20634;-84
2023/10/13 02:44:57;;;;;;;19.97;10.53;;;;;;;15.69;100.00;98155.28;4182091;28;20634;-85
2023/10/13 02:47:05;;;;;;;16.30;10.20;;;;;;;15.65;99.61;98149.47;4202933;28;20674;-85
2023/10/13 02:49:10;;;;;;;16.30;11.70;;;;;;;15.64;100.00;98157.50;4176965;28;20631;-85
2023/10/13 02:51:16;;;;;;;21.70;11.70;;;;;;;15.63;100.00;98155.81;4184280;28;20634;-84
2023/10/13 02:53:18;;;;;;;13.00;9.97;;;;;;;15.62;100.00;98148.88;4195517;28;21004;-85
2023/10/13 02:55:26;;;;;;;14.53;11.33;;;;;;;15.60;100.00;98146.38;4184824;28;20640;-84
2023/10/13 02:57:34;;;;;;;15.40;11.20;;;;;;;15.58;100.00;98152.75;4186686;28;21214;-84
2023/10/13 02:59:40;;;;;;;16.30;11.33;;;;;;;15.56;100.00;98142.38;4193640;28;20674;-85
2023/10/13 03:01:43;;;;;;;18.03;11.20;;;;;;;15.54;99.66;98140.00;4182066;28;20635;-84
2023/10/13 03:03:50;;;;;;;14.90;10.70;;;;;;;15.52;99.50;98139.31;4193895;28;20691;-85
2023/10/13 03:05:53;;;;;;;12.40;10.13;;;;;;;15.50;100.00;98138.59;4201650;28;20646;-84
2023/10/13 03:07:56;;;;;;;13.40;10.63;;;;;;;15.49;100.00;98136.97;4216523;28;22020;-85
2023/10/13 03:10:09;;;;;;;15.00;10.40;;;;;;;15.48;100.00;98135.28;4196946;28;20725;-85
2023/10/13 03:12:12;;;;;;;14.07;10.80;;;;;;;15.46;99.76;98135.44;4197491;28;20642;-84
2023/10/13 03:14:25;;;;;;;17.13;11.20;;;;;;;15.44;100.00;98131.25;4195310;28;20653;-84
2023/10/13 03:16:29;;;;;;;13.03;10.33;;;;;;;15.43;100.00;98134.88;4194432;28;20631;-84
2023/10/13 03:18:36;;;;;;;15.80;11.00;;;;;;;15.38;100.00;98129.16;4202850;28;20628;-85
2023/10/13 03:20:42;;;;;;;16.13;10.00;;;;;;;15.37;99.93;98130.16;4216328;28;20621;-85
2023/10/13 03:22:45;;;;;;;15.20;10.83;;;;;;;15.37;99.10;98130.16;4183636;28;20630;-85
2023/10/13 03:24:48;;;;;;;14.60;10.53;;;;;;;15.35;100.00;98137.31;4188045;28;20742;-84
2023/10/13 03:26:52;;;;;;;12.93;9.80;;;;;;;15.33;99.99;98132.19;4199393;28;20669;-84
2023/10/13 03:28:56;;;;;;;18.47;10.70;;;;;;;15.31;100.00;98130.66;4200696;28;20654;-84
2023/10/13 03:31:01;;;;;;;16.07;11.10;;;;;;;15.29;100.00;98125.53;4200107;28;20708;-84
2023/10/13 03:33:07;;;;;;;13.97;10.27;;;;;;;15.28;100.00;98128.31;4203513;28;20647;-84
2023/10/13 03:35:23;;;;;;;13.80;9.53;;;;;;;15.27;100.00;98127.44;4196086;28;20686;-85
2023/10/13 03:37:37;;;;;;;14.73;10.30;;;;;;;15.24;100.00;98132.97;4203576;28;20815;-85
2023/10/13 03:39:45;;;;;;;12.30;9.60;;;;;;;15.24;100.00;98134.78;4203772;28;20633;-85
2023/10/13 03:41:53;;;;;;;19.03;10.97;;;;;;;15.24;100.00;98124.28;4201837;28;20629;-85
2023/10/13 03:44:12;;;;;;;15.37;10.20;;;;;;;15.20;100.00;98128.16;4182972;28;20633;-85
2023/10/13 03:46:21;;;;;;;14.47;10.60;;;;;;;15.19;100.00;98123.84;4216381;28;20631;-85
2023/10/13 03:48:29;;;;;;;20.80;11.37;;;;;;;15.16;100.00;98127.53;4219130;28;20661;-85
2023/10/13 03:50:35;;;;;;;16.60;11.20;;;;;;;15.17;100.00;98131.03;4184112;28;21208;-84
2023/10/13 03:52:39;;;;;;;15.83;11.33;;;;;;;15.17;99.77;98126.59;4217727;28;20626;-84
2023/10/13 03:54:42;;;;;;;17.70;11.80;;;;;;;15.08;100.00;98121.28;4202272;28;20638;-87
2023/10/13 03:56:46;;;;;;;13.83;10.90;;;;;;;15.07;100.00;98123.06;4191080;28;20638;-87
2023/10/13 03:58:48;;;;;;;13.53;9.90;;;;;;;15.07;100.00;98125.69;4200450;28;20628;-87
2023/10/13 04:00:52;;;;;;;15.30;11.00;;;;;;;15.06;100.00;98128.44;4199955;28;20669;-87
2023/10/13 04:03:08;;;;;;;18.37;11.43;;;;;;;15.06;99.68;98128.44;4179956;28;20734;-87
2023/10/13 04:05:29;;;;;;;15.13;10.40;;;;;;;15.07;100.00;98129.28;4195582;28;21041;-87
2023/10/13 04:08:44;;;;;;;16.57;10.47;;;;;;;15.03;100.00;98126.06;4185031;28;20654;-87
2023/10/13 04:15:22;;;;;;;16.37;11.07;;;;;;;14.97;99.69;98131.03;4200931;28;20770;-87
2023/10/13 04:17:25;;;;;;;16.20;11.50;;;;;;;14.96;100.00;98131.97;4185175;28;20737;-87
2023/10/13 04:19:29;;;;;;;15.00;10.90;;;;;;;14.95;100.00;98128.53;4200671;28;21262;-87
2023/10/13 04:21:42;;;;;;;13.97;10.83;;;;;;;14.95;100.00;98119.84;4176702;28;20619;-87
2023/10/13 04:26:21;;;;;;;14.73;11.03;;;;;;;14.90;100.00;98122.00;4217364;28;20632;-87
2023/10/13 04:28:34;;;;;;;13.67;10.33;;;;;;;14.86;100.00;98124.06;4201265;28;20665;-87
2023/10/13 04:30:52;;;;;;;17.53;11.53;;;;;;;14.84;100.00;98126.00;4204809;28;20654;-87
2023/10/13 04:33:17;;;;;;;16.93;10.27;;;;;;;14.83;100.00;98118.25;4186528;28;20768;-87
2023/10/13 04:35:24;;;;;;;16.17;11.67;;;;;;;14.82;100.00;98120.00;4184189;28;20676;-87
2023/10/13 04:37:29;;;;;;;15.13;10.20;;;;;;;14.80;100.00;98118.50;4215297;28;21201;-87
2023/10/13 04:39:35;;;;;;;18.33;11.00;;;;;;;14.78;100.00;98117.81;4199495;28;20724;-87
2023/10/13 04:41:41;;;;;;;18.37;11.67;;;;;;;14.79;100.00;98115.06;4213997;28;20621;-87
2023/10/13 04:43:55;;;;;;;14.97;11.47;;;;;;;14.76;100.00;98110.06;4206207;28;20641;-87
2023/10/13 04:46:14;;;;;;;18.97;11.57;;;;;;;14.76;100.00;98107.44;4186561;28;20618;-87
2023/10/13 04:48:29;;;;;;;18.00;11.40;;;;;;;14.75;100.00;98107.56;4186244;28;20666;-86
2023/10/13 04:50:44;;;;;;;14.73;10.57;;;;;;;14.73;100.00;98101.59;4214098;28;20662;-87
2023/10/13 04:53:01;;;;;;;16.13;10.10;;;;;;;14.70;100.00;98100.06;4197672;28;20674;-87
2023/10/13 04:55:24;;;;;;;16.90;11.43;;;;;;;14.68;100.00;98101.97;4183502;28;21058;-87
2023/10/13 04:57:33;;;;;;;14.17;10.67;;;;;;;14.68;100.00;98095.91;4177923;28;20623;-86
2023/10/13 04:59:35;;;;;;;17.77;11.13;;;;;;;14.67;100.00;98100.34;4203850;28;20624;-87
2023/10/13 05:02:41;;;;;;;14.00;10.17;;;;;;;14.66;100.00;98098.66;4198219;28;21205;-86
2023/10/13 05:04:38;;;;;;;15.77;11.17;;;;;;;14.66;100.00;98093.41;4215430;28;20629;-87
2023/10/13 05:44:37;;;;;;;17.10;10.30;;;;;;;14.42;100.00;98083.31;4188276;28;20730;-87
2023/10/13 05:47:01;;;;;;;12.97;10.30;;;;;;;14.44;100.00;98086.63;4185286;28;20667;-89
2023/10/13 05:49:39;;;;;;;13.90;10.70;;;;;;;14.44;100.00;98084.03;4196977;28;21046;-87
2023/10/13 05:51:46;;;;;;;16.20;11.90;;;;;;;14.44;100.00;98086.63;4193914;28;20634;-87
2023/10/13 06:29:10;;;;;;;20.40;12.10;;;;;;;15.08;100.00;98110.78;4198807;28;20705;-88
2023/10/13 06:31:21;;;;;;;15.53;10.47;;;;;;;15.13;100.00;98108.56;4195141;28;20689;-87
2023/10/13 06:33:28;;;;;;;14.93;9.97;;;;;;;15.19;99.58;98105.44;4199300;28;20629;-89
2023/10/13 06:35:34;;;;;;;15.40;11.10;;;;;;;15.26;99.87;98103.94;4215845;28;21167;-89
2023/10/13 06:37:41;;;;;;;14.43;11.00;;;;;;;15.33;99.00;98103.28;4197644;28;20638;-88
2023/10/13 06:39:46;;;;;;;14.40;11.00;;;;;;;15.38;97.64;98097.63;4198742;28;20787;-88
2023/10/13 06:41:49;;;;;;;15.43;11.07;;;;;;;15.45;97.94;98099.56;4197299;28;20621;-88
2023/10/13 06:43:59;;;;;;;19.83;10.80;;;;;;;15.58;99.38;98105.44;4178668;28;20622;-89
2023/10/13 06:46:03;;;;;;;17.43;10.83;;;;;;;15.67;98.61;98113.34;4219115;28;20673;-89
2023/10/13 06:48:11;;;;;;;15.77;10.77;;;;;;;15.78;98.59;98109.75;4178727;28;20700;-86
2023/10/13 06:50:16;;;;;;;16.20;10.37;;;;;;;15.84;98.34;98120.56;4182802;28;20660;-89
2023/10/13 06:52:22;;;;;;;14.90;10.37;;;;;;;15.98;97.74;98109.63;4197101;28;20665;-88
2023/10/13 06:54:25;;;;;;;14.67;10.60;;;;;;;16.14;96.02;98110.75;4217116;28;20653;-87
2023/10/13 06:56:29;;;;;;;15.47;12.30;;;;;;;16.33;96.13;98117.88;4213024;28;20641;-87
2023/10/13 06:58:32;;;;;;;15.40;10.07;;;;;;;16.50;95.04;98119.78;4213878;28;20625;-87
2023/10/13 07:00:38;;;;;;;18.00;11.87;;;;;;;16.63;96.81;98118.53;4195087;28;20633;-86
2023/10/13 07:02:43;;;;;;;12.60;9.80;;;;;;;16.66;93.28;98118.25;4194002;28;20666;-86
2023/10/13 07:04:47;;;;;;;16.70;10.33;;;;;;;16.77;93.26;98121.53;4178459;28;20719;-88
2023/10/13 07:06:50;;;;;;;13.90;10.73;;;;;;;16.92;94.50;98120.13;4183679;28;20638;-88
2023/10/13 07:08:56;;;;;;;13.93;10.33;;;;;;;17.00;92.64;98107.91;4183938;28;20643;-88
2023/10/13 07:11:02;;;;;;;15.37;10.00;;;;;;;17.15;93.66;98113.53;4196180;28;20627;-88
2023/10/13 07:13:07;;;;;;;13.77;9.80;;;;;;;17.34;94.46;98119.59;4210324;28;20629;-88
2023/10/13 07:15:19;;;;;;;15.10;9.83;;;;;;;17.48;93.07;98117.31;4188474;28;20638;-87
2023/10/13 07:17:24;;;;;;;16.40;10.73;;;;;;;17.54;91.30;98114.06;4198159;28;20627;-88
2023/10/13 07:19:28;;;;;;;15.43;9.80;;;;;;;17.56;91.16;98109.47;4194277;28;20637;-88
2023/10/13 07:21:32;;;;;;;15.57;9.77;;;;;;;17.63;91.99;98121.09;4195296;28;20627;-87
2023/10/13 07:23:35;;;;;;;12.70;9.70;;;;;;;17.70;90.58;98122.16;4188317;28;21249;-87
2023/10/13 07:25:40;;;;;;;16.23;9.57;;;;;;;17.80;91.80;98122.97;4211142;28;20626;-87
2023/10/13 07:27:43;;;;;;;15.70;10.53;;;;;;;17.89;91.04;98130.00;4213520;28;20619;-87
2023/10/13 07:29:49;;;;;;;12.60;9.07;;;;;;;17.95;88.96;98127.56;4177466;28;20693;-87
2023/10/13 07:31:52;;;;;;;20.47;15.33;;;;;;;18.07;90.00;98125.53;4186381;28;20625;-87
2023/10/13 07:34:05;;;;;;;11.03;9.13;;;;;;;18.17;88.81;98119.25;4212347;28;20624;-87
2023/10/13 07:36:17;;;;;;;14.03;9.50;;;;;;;18.31;90.03;98124.00;4202023;28;20635;-87
2023/10/13 07:38:21;;;;;;;15.37;9.30;;;;;;;18.47;89.16;98121.50;4191207;28;20630;-84
2023/10/13 07:40:39;;;;;;;13.40;9.50;;;;;;;18.61;88.72;98118.31;4210844;28;20634;-84
2023/10/13 07:42:46;;;;;;;14.53;10.13;;;;;;;18.68;88.22;98120.19;4197759;28;20629;-84
2023/10/13 07:44:49;;;;;;;15.20;9.47;;;;;;;18.74;87.88;98119.56;4186766;28;20628;-84
2023/10/13 07:46:59;;;;;;;15.43;9.57;;;;;;;18.85;88.00;98116.66;4195421;28;20645;-84
2023/10/13 07:49:10;;;;;;;13.20;8.60;;;;;;;18.97;86.99;98115.44;4200789;28;20615;-84
2023/10/13 07:51:16;;;;;;;12.33;7.97;;;;;;;19.10;84.92;98115.88;4183058;28;20631;-84
2023/10/13 07:53:22;;;;;;;11.33;8.43;;;;;;;19.22;85.06;98122.56;4185254;28;20625;-84
2023/10/13 07:55:26;;;;;;;12.80;9.03;;;;;;;19.35;85.05;98110.56;4182634;28;20658;-84
2023/10/13 07:57:30;;;;;;;17.10;9.37;;;;;;;19.49;87.00;98125.84;4179455;28;20673;-84
2023/10/13 07:59:47;;;;;;;11.90;8.87;;;;;;;19.60;84.67;98118.44;4184889;28;20619;-84
2023/10/13 08:02:12;;;;;;;12.80;8.83;;;;;;;19.77;86.04;98120.16;4193353;28;20630;-86
2023/10/13 08:04:28;;;;;;;10.10;7.70;;;;;;;19.85;84.30;98110.41;4198675;28;20678;-85
2023/10/13 08:06:36;;;;;;;12.97;8.53;;;;;;;20.04;84.46;98117.28;4196767;28;20607;-86
2023/10/13 08:08:40;;;;;;;11.97;9.30;;;;;;;20.25;84.98;98118.50;4192552;28;21165;-84
2023/10/13 08:10:45;;;;;;;11.53;8.83;;;;;;;20.46;87.67;98121.47;4223749;28;20806;-87
2023/10/13 08:12:50;;;;;;;14.63;9.50;;;;;;;20.59;85.94;98117.34;4200127;28;20623;-86
2023/10/13 08:17:31;;;;;;;18.27;9.40;;;;;;;21.00;86.13;98109.25;4201109;27;20791;-85
2023/10/13 08:19:41;;;;;;;12.13;9.80;;;;;;;21.22;86.58;98105.03;4195796;28;21243;-85
2023/10/13 08:21:51;;;;;;;10.60;8.80;;;;;;;21.34;85.60;98104.50;4200196;28;20627;-85
2023/10/13 08:24:06;;;;;;;14.87;9.63;;;;;;;21.47;85.06;98099.50;4203399;28;20754;-86
2023/10/13 08:28:56;;;;;;;12.87;8.87;;;;;;;21.70;81.53;98106.56;4219352;27;20781;-86
2023/10/13 08:31:14;;;;;;;10.90;8.03;;;;;;;21.73;80.81;98095.59;4223570;27;20690;-86
2023/10/13 08:33:17;;;;;;;13.27;8.40;;;;;;;21.82;81.97;98100.66;4182636;28;20676;-84
2023/10/13 08:35:33;;;;;;;10.50;8.57;;;;;;;21.91;80.92;98094.31;4168307;28;20640;-86
2023/10/13 08:37:59;;;;;;;12.20;8.50;;;;;;;21.95;80.83;98089.47;4167873;28;20629;-85
2023/10/13 08:40:43;;;;;;;17.20;9.33;;;;;;;22.10;82.81;98085.91;4178199;28;20652;-85
2023/10/13 08:43:08;;;;;;;17.40;10.77;;;;;;;22.38;84.54;98089.72;4170240;28;20606;-85
2023/10/13 08:45:53;;;;;;;16.23;10.00;;;;;;;22.53;81.96;98075.47;4166331;28;21254;-86
2023/10/13 08:47:53;;;;;;;10.37;8.57;;;;;;;22.59;82.94;98080.06;4183640;28;20645;-85
2023/10/13 08:50:10;;;;;;;13.47;9.20;;;;;;;22.70;84.18;98071.66;4184655;28;21001;-85
2023/10/13 08:55:03;;;;;;;13.30;8.77;;;;;;;23.00;81.97;98073.41;4118323;28;21320;-85
2023/10/13 08:57:32;;;;;;;12.80;8.67;;;;;;;23.04;80.33;98080.84;4166165;28;20627;-85
2023/10/13 08:59:52;;;;;;;12.30;9.53;;;;;;;23.02;80.18;98077.53;4185793;28;20622;-85
2023/10/13 09:01:59;;;;;;;11.13;8.73;;;;;;;23.12;79.49;98075.41;4184034;28;20623;-85
2023/10/13 09:06:26;;;;;;;12.80;7.50;;;;;;;23.31;76.11;98081.03;4186079;28;20635;-85
2023/10/13 09:08:44;;;;;;;8.33;6.50;;;;;;;23.40;76.59;98060.47;4184331;28;20657;-85
2023/10/13 09:11:05;;;;;;;13.40;8.40;;;;;;;23.48;75.96;98069.16;4183718;28;20968;-85
2023/10/13 09:13:11;;;;;;;10.83;7.33;;;;;;;23.62;77.41;98067.50;4182858;28;20735;-86
2023/10/13 09:15:23;;;;;;;10.17;7.70;;;;;;;23.74;76.60;98073.03;4180859;28;21040;-85
2023/10/13 09:17:34;;;;;;;8.93;6.40;;;;;;;23.83;72.53;98065.75;4184762;28;20638;-85
2023/10/13 09:19:55;;;;;;;7.97;6.50;;;;;;;23.82;72.82;98064.94;4181934;28;20645;-85
2023/10/13 09:21:58;;;;;;;12.27;7.03;;;;;;;24.03;76.17;98069.50;4183039;28;20637;-85
2023/10/13 09:24:21;;;;;;;12.00;7.20;;;;;;;24.15;74.30;98065.31;4183441;28;21193;-85
2023/10/13 09:26:25;;;;;;;9.23;6.50;;;;;;;24.25;75.05;98064.81;4183224;28;20641;-85
2023/10/13 09:28:31;;;;;;;11.23;7.33;;;;;;;24.42;75.37;98065.41;4201350;28;20752;-85
2023/10/13 09:30:33;;;;;;;8.90;5.07;;;;;;;24.56;72.22;98059.19;4167602;28;21284;-85
2023/10/13 09:32:46;;;;;;;6.83;4.33;;;;;;;24.46;66.66;98048.00;4218483;28;20654;-85
2023/10/13 09:34:50;;;;;;;8.47;5.00;;;;;;;24.38;66.67;98045.47;4219355;28;20629;-85
2023/10/13 09:36:56;;;;;;;10.20;4.23;;;;;;;24.37;66.35;98043.81;4180678;28;20692;-85
2023/10/13 09:39:12;;;;;;;6.40;4.73;;;;;;;24.41;65.61;98043.22;4181319;28;20725;-85
2023/10/13 09:41:18;;;;;;;10.53;4.87;;;;;;;24.55;66.83;98025.50;4162049;28;20631;-85
2023/10/13 09:43:21;;;;;;;8.83;6.10;;;;;;;24.68;70.24;98029.91;4186103;28;20715;-85
2023/10/13 09:45:29;;;;;;;8.60;5.80;;;;;;;24.83;70.36;98024.50;4176076;28;20623;-85
2023/10/13 09:47:36;;;;;;;7.00;4.57;;;;;;;24.94;65.48;98019.44;4156040;28;20643;-85
2023/10/13 09:49:50;;;;;;;9.70;5.47;;;;;;;24.98;59.40;98009.19;4176311;28;20654;-85
2023/10/13 09:52:00;;;;;;;9.47;4.03;;;;;;;25.05;57.82;97999.41;4172814;28;20731;-85
2023/10/13 09:54:09;;;;;;;9.40;3.87;;;;;;;25.21;57.21;98011.44;4172080;28;20625;-85
2023/10/13 09:56:51;;;;;;;6.13;3.30;;;;;;;25.39;54.88;98006.34;4173134;28;20722;-85
2023/10/13 09:59:12;;;;;;;7.80;4.10;;;;;;;25.48;56.50;98002.50;4201754;28;20615;-85
2023/10/13 10:01:21;;;;;;;7.00;3.57;;;;;;;25.50;54.89;97999.63;4178377;28;20661;-85
2023/10/13 10:03:42;;;;;;;9.17;4.17;;;;;;;25.57;55.15;98001.31;4174846;28;20619;-85
2023/10/13 10:06:05;;;;;;;4.40;3.20;;;;;;;25.67;55.49;97991.09;4159145;28;20747;-85
2023/10/13 10:08:10;;;;;;;8.37;4.40;;;;;;;25.71;55.33;97987.00;4179571;28;20754;-85
2023/10/13 10:10:21;;;;;;;6.97;3.80;;;;;;;25.73;55.78;97985.75;4160432;28;20635;-85
2023/10/13 10:12:33;;;;;;;7.00;3.57;;;;;;;25.87;55.51;97981.28;4168939;28;20636;-85
2023/10/13 10:14:56;;;;;;;4.67;3.70;;;;;;;26.02;54.88;97977.41;4196115;28;20634;-85
2023/10/13 10:17:08;;;;;;;5.47;3.30;;;;;;;26.12;53.96;97980.50;4205811;28;20625;-86
2023/10/13 10:19:12;;;;;;;5.03;3.17;;;;;;;26.22;55.18;97976.41;4178945;28;20687;-85
2023/10/13 10:21:21;;;;;;;6.63;3.67;;;;;;;26.37;54.65;97971.72;4166709;28;20627;-86
2023/10/13 10:23:25;;;;;;;7.20;3.97;;;;;;;26.45;53.59;97968.84;4173699;28;20665;-86
2023/10/13 10:25:34;;;;;;;7.83;3.30;;;;;;;26.52;53.32;97966.94;4175597;28;20633;-85
2023/10/13 10:27:38;;;;;;;6.20;3.70;;;;;;;26.53;53.52;97962.44;4174394;28;21276;-85
2023/10/13 10:29:41;;;;;;;8.83;4.77;;;;;;;26.60;53.28;97956.06;4154642;28;20673;-86
2023/10/13 10:31:45;;;;;;;7.40;5.70;;;;;;;26.65;53.98;97957.06;4201844;28;20630;-85
2023/10/13 10:33:50;;;;;;;8.40;3.80;;;;;;;26.75;53.80;97953.97;4174475;28;20679;-85
2023/10/13 10:36:00;;;;;;;8.83;3.80;;;;;;;26.81;53.41;97947.78;4175074;28;20632;-86
2023/10/13 10:38:15;;;;;;;5.10;3.63;;;;;;;26.83;53.17;97943.84;4179254;28;20652;-88
2023/10/13 10:40:46;;;;;;;6.77;3.17;;;;;;;26.84;52.63;97939.34;4173964;28;20632;-89
2023/10/13 10:42:52;;;;;;;6.70;3.70;;;;;;;26.89;52.90;97931.53;4159809;28;20626;-89
2023/10/13 10:44:55;;;;;;;11.67;3.50;;;;;;;26.91;53.61;97932.94;4163113;28;20680;-89
2023/10/13 10:47:10;;;;;;;6.27;3.57;;;;;;;26.93;52.71;97925.53;4174944;28;20770;-88
2023/10/13 10:49:18;;;;;;;5.70;3.80;;;;;;;26.82;52.59;97926.16;4166593;28;20716;-89
2023/10/13 10:51:22;;;;;;;6.83;4.07;;;;;;;26.65;54.35;97916.09;4206991;28;20688;-89
2023/10/13 10:53:33;;;;;;;8.30;3.73;;;;;;;26.36;52.73;97902.34;4177373;28;20710;-89
2023/10/13 10:55:37;;;;;;;10.87;3.57;;;;;;;26.17;53.47;97903.94;4177768;28;20655;-89
2023/10/13 10:57:43;;;;;;;7.40;4.53;;;;;;;25.99;54.43;97894.91;4173357;28;20641;-88
2023/10/13 10:59:46;;;;;;;9.00;5.03;;;;;;;25.86;54.12;97891.38;4185917;28;20678;-89
2023/10/13 11:01:50;;;;;;;6.60;3.63;;;;;;;25.76;54.74;97885.63;4178480;28;20636;-88
2023/10/13 11:03:57;;;;;;;7.70;3.77;;;;;;;25.75;54.54;97883.97;4177659;28;21364;-89
2023/10/13 11:06:03;;;;;;;7.47;4.00;;;;;;;25.73;54.39;97875.34;4182068;28;21107;-89
2023/10/13 11:08:16;;;;;;;7.40;3.30;;;;;;;25.77;54.45;97885.44;4153998;28;20737;-88
2023/10/13 11:10:27;;;;;;;6.37;3.70;;;;;;;25.85;55.02;97881.75;4179101;28;20693;-89
2023/10/13 11:12:33;;;;;;;6.70;3.97;;;;;;;25.89;55.35;97872.28;4174304;28;20613;-89
2023/10/13 11:14:39;;;;;;;6.10;3.93;;;;;;;25.88;55.01;97876.00;4179165;28;20643;-89
2023/10/13 11:16:50;;;;;;;7.10;3.60;;;;;;;25.97;55.37;97878.25;4178594;28;20669;-89
2023/10/13 11:19:05;;;;;;;5.00;3.90;;;;;;;26.02;55.58;97874.97;4160533;28;20692;-89
2023/10/13 11:21:11;;;;;;;4.37;3.37;;;;;;;25.98;54.87;97866.53;4170559;28;20733;-87
2023/10/13 11:23:15;;;;;;;6.70;3.70;;;;;;;25.95;54.43;97861.59;4174076;28;20617;-89
2023/10/13 11:25:23;;;;;;;9.07;3.63;;;;;;;25.93;55.22;97858.28;4174115;28;20645;-88